Time;durP1;ratioP1;P1;durP2;ratioP2;P2;SDS_P1;SDS_P2;PMS_P1;PMS_P2;Temp;Humidity;BMP_temperature;BMP_pressure;BME280_temperature;BME280_humidity;BME280_pressure;Samples;Min_cycle;Max_cycle;Signal;HPM_P1;HPM_P2
2021/12/24 00:00:59;;;;;;;7.90;5.70;;;13.70;67.50;;;;;;5076034;28;20317;-72
2021/12/24 00:03:26;;;;;;;7.65;5.15;;;13.70;67.50;;;;;;5091230;28;20128;-72
2021/12/24 00:05:51;;;;;;;8.07;5.47;;;13.70;67.50;;;;;;5096754;28;20051;-72
2021/12/24 00:08:17;;;;;;;9.00;5.32;;;13.70;67.50;;;;;;5095140;28;20036;-72
2021/12/24 00:10:46;;;;;;;8.45;5.60;;;13.80;67.60;;;;;;5095920;28;20458;-73
2021/12/24 00:13:15;;;;;;;7.03;5.30;;;13.70;67.50;;;;;;5083108;28;20056;-72
2021/12/24 00:15:49;;;;;;;8.07;5.72;;;13.70;67.70;;;;;;5076026;28;20089;-72
2021/12/24 00:37:22;;;;;;;10.93;6.22;;;13.70;67.80;;;;;;5075399;28;20044;-71
2021/12/24 00:42:51;;;;;;;7.05;5.18;;;13.60;67.90;;;;;;5049557;28;20059;-71
2021/12/24 00:45:21;;;;;;;8.02;5.22;;;13.60;67.90;;;;;;5077606;28;20459;-73
2021/12/24 00:47:48;;;;;;;7.78;5.18;;;13.60;68.00;;;;;;5095334;28;20067;-71
2021/12/24 00:50:19;;;;;;;7.85;5.45;;;13.60;67.90;;;;;;5095150;28;20169;-72
2021/12/24 00:55:12;;;;;;;7.50;5.07;;;13.60;67.90;;;;;;5075007;28;20052;-72
2021/12/24 00:57:44;;;;;;;7.57;5.28;;;13.60;67.90;;;;;;5075292;28;20412;-72
2021/12/24 01:00:18;;;;;;;6.65;4.78;;;13.60;68.10;;;;;;5075372;28;20044;-73
2021/12/24 01:02:46;;;;;;;7.10;4.95;;;13.60;68.00;;;;;;5082079;28;20124;-71
2021/12/24 01:05:12;;;;;;;6.93;4.35;;;13.60;68.10;;;;;;5095369;28;20105;-72
2021/12/24 01:07:38;;;;;;;6.57;4.95;;;13.50;68.10;;;;;;5077694;28;20048;-72
2021/12/24 01:10:06;;;;;;;7.65;5.00;;;13.50;68.20;;;;;;5095265;28;20055;-72
2021/12/24 01:12:32;;;;;;;6.25;4.30;;;13.60;68.20;;;;;;5089551;28;20048;-72
2021/12/24 01:14:58;;;;;;;7.25;4.63;;;13.50;68.10;;;;;;5075056;28;20041;-72
2021/12/24 01:19:57;;;;;;;5.65;4.32;;;13.50;68.10;;;;;;5077074;28;20402;-72
2021/12/24 01:25:31;;;;;;;;;;;13.50;68.30;;;;;;5079443;28;20459;-72
2021/12/24 01:38:56;;;;;;;3.97;3.25;;;13.50;68.60;;;;;;5078866;28;20041;-74
2021/12/24 01:44:08;;;;;;;5.10;3.60;;;13.50;68.80;;;;;;5077962;28;20048;-72
2021/12/24 01:46:34;;;;;;;5.88;4.07;;;13.40;68.80;;;;;;5078259;28;20088;-71
2021/12/24 01:48:59;;;;;;;5.07;3.80;;;13.50;68.80;;;;;;5078795;28;20190;-71
2021/12/24 01:51:25;;;;;;;6.07;3.92;;;13.50;69.00;;;;;;5078842;28;20360;-71
2021/12/24 01:53:51;;;;;;;6.10;4.20;;;13.40;68.90;;;;;;5078155;28;20040;-73
2021/12/24 01:56:16;;;;;;;5.18;3.80;;;13.50;69.00;;;;;;5060984;28;20056;-72
2021/12/24 01:58:42;;;;;;;7.72;4.10;;;13.40;69.00;;;;;;5078113;28;20052;-72
2021/12/24 02:01:08;;;;;;;6.70;4.35;;;13.40;69.00;;;;;;5077943;28;20053;-72
2021/12/24 02:03:34;;;;;;;7.15;4.70;;;13.40;69.00;;;;;;5082709;28;20051;-72
2021/12/24 02:06:00;;;;;;;5.97;3.78;;;13.40;69.20;;;;;;5078666;28;20080;-73
2021/12/24 02:08:25;;;;;;;6.50;4.30;;;13.40;69.20;;;;;;5060370;28;20430;-72
2021/12/24 02:10:51;;;;;;;7.28;4.65;;;13.40;69.20;;;;;;5078102;28;20360;-72
2021/12/24 02:13:17;;;;;;;7.65;4.05;;;13.40;69.20;;;;;;5087241;28;20056;-73
2021/12/24 02:16:01;;;;;;;6.55;4.38;;;13.40;69.20;;;;;;5081108;28;20143;-71
2021/12/24 02:29:18;;;;;;;7.55;4.95;;;13.40;69.20;;;;;;5077554;28;20443;-72
2021/12/24 02:31:44;;;;;;;8.85;5.03;;;13.40;69.20;;;;;;5059222;28;20063;-72
2021/12/24 02:34:10;;;;;;;7.35;4.20;;;13.40;69.30;;;;;;5093041;28;20063;-73
2021/12/24 02:36:35;;;;;;;8.05;4.65;;;13.30;69.30;;;;;;5097715;28;20055;-72
2021/12/24 02:39:02;;;;;;;7.55;4.63;;;13.40;69.40;;;;;;5097645;28;20044;-72
2021/12/24 02:41:28;;;;;;;7.43;4.60;;;13.30;69.40;;;;;;5098040;28;20439;-73
2021/12/24 02:43:54;;;;;;;6.93;4.60;;;13.30;69.50;;;;;;5076090;28;20055;-72
2021/12/24 02:46:36;;;;;;;6.75;4.28;;;13.30;69.60;;;;;;5077350;28;20057;-71
2021/12/24 02:49:09;;;;;;;8.55;5.25;;;13.30;69.70;;;;;;5077666;28;20424;-72
2021/12/24 02:54:21;;;;;;;8.00;5.40;;;13.20;69.80;;;;;;5076459;28;20049;-72
2021/12/24 02:56:53;;;;;;;10.43;6.03;;;13.30;69.80;;;;;;5077297;28;20048;-72
2021/12/24 02:59:25;;;;;;;8.73;5.20;;;13.20;69.80;;;;;;5077167;28;20056;-72
2021/12/24 03:01:53;;;;;;;9.45;5.82;;;13.20;69.80;;;;;;5077689;28;20363;-72
2021/12/24 03:04:19;;;;;;;9.82;6.30;;;13.20;69.80;;;;;;5076804;28;20052;-73
2021/12/24 03:06:48;;;;;;;9.43;5.70;;;13.20;69.80;;;;;;5076931;28;20056;-74
2021/12/24 03:09:16;;;;;;;10.18;5.97;;;13.20;69.90;;;;;;5059403;28;20052;-74
2021/12/24 03:11:43;;;;;;;10.13;6.05;;;13.30;70.10;;;;;;5076762;28;20133;-73
2021/12/24 03:14:09;;;;;;;11.52;6.28;;;13.20;70.10;;;;;;5076338;28;20363;-73
2021/12/24 03:16:37;;;;;;;10.02;6.57;;;13.30;70.10;;;;;;5077480;28;20054;-73
2021/12/24 03:19:04;;;;;;;11.77;6.72;;;13.20;70.20;;;;;;5077427;28;20079;-73
2021/12/24 03:21:37;;;;;;;10.00;6.07;;;13.20;70.40;;;;;;5076759;28;20084;-72
2021/12/24 03:26:34;;;;;;;11.10;6.28;;;13.20;70.60;;;;;;5097550;28;20359;-71
2021/12/24 03:29:00;;;;;;;9.48;5.68;;;13.20;70.60;;;;;;5096783;28;20048;-73
2021/12/24 03:31:26;;;;;;;10.88;6.70;;;13.20;70.60;;;;;;5096625;28;20500;-72
2021/12/24 03:33:53;;;;;;;12.75;7.35;;;13.20;70.60;;;;;;5084252;28;20048;-73
2021/12/24 03:36:21;;;;;;;10.60;7.05;;;13.20;70.50;;;;;;5076444;28;20051;-72
2021/12/24 03:38:47;;;;;;;13.85;7.30;;;13.20;70.70;;;;;;5076986;28;20352;-72
2021/12/24 03:41:13;;;;;;;12.93;7.22;;;13.10;70.70;;;;;;5075845;28;20045;-74
2021/12/24 03:43:39;;;;;;;15.13;8.43;;;13.10;70.80;;;;;;5085884;28;20447;-72
2021/12/24 03:46:09;;;;;;;13.23;8.02;;;13.10;70.90;;;;;;5096188;28;20513;-73
2021/12/24 03:51:39;;;;;;;14.48;8.50;;;13.10;70.90;;;;;;5096483;28;20437;-73
2021/12/24 03:56:39;;;;;;;15.50;8.43;;;13.10;71.10;;;;;;5058450;28;20053;-74
2021/12/24 03:59:07;;;;;;;14.18;7.90;;;13.10;71.20;;;;;;5076310;28;20048;-72
2021/12/24 04:01:34;;;;;;;22.73;9.30;;;13.10;71.10;;;;;;5077871;28;20048;-71
2021/12/24 04:04:00;;;;;;;17.85;8.15;;;13.10;71.40;;;;;;5096073;28;20089;-72
2021/12/24 04:06:26;;;;;;;16.00;8.55;;;13.10;71.50;;;;;;5095892;28;20050;-72
2021/12/24 04:08:52;;;;;;;16.50;7.97;;;13.10;71.60;;;;;;5096587;28;20090;-73
2021/12/24 04:11:18;;;;;;;15.50;8.05;;;13.00;71.60;;;;;;5096114;28;20411;-74
2021/12/24 04:13:44;;;;;;;18.00;8.32;;;13.00;71.60;;;;;;5076010;28;20129;-74
2021/12/24 04:16:10;;;;;;;12.95;7.60;;;13.00;71.70;;;;;;5075905;28;20391;-72
2021/12/24 04:18:46;;;;;;;18.73;8.75;;;13.00;71.70;;;;;;5076258;28;20372;-72
2021/12/24 04:26:41;;;;;;;18.65;7.53;;;13.00;71.90;;;;;;5075498;28;20062;-72
2021/12/24 04:29:08;;;;;;;17.85;7.82;;;13.00;72.10;;;;;;5075743;28;20048;-73
2021/12/24 04:31:46;;;;;;;17.08;8.10;;;13.00;72.10;;;;;;5076704;28;20055;-73
2021/12/24 04:34:13;;;;;;;18.13;8.20;;;12.90;72.20;;;;;;5095670;28;20102;-71
2021/12/24 04:51:09;;;;;;;14.77;6.97;;;12.90;72.10;;;;;;5052927;28;20509;-72
2021/12/24 05:04:25;;;;;;;17.27;6.32;;;13.20;70.40;;;;;;5081627;28;20119;-75
2021/12/24 05:06:56;;;;;;;;;;;13.20;69.90;;;;;;5057701;28;20471;-73
2021/12/24 05:09:24;;;;;;;17.35;6.22;;;13.30;69.70;;;;;;5096628;28;19920;-74
2021/12/24 05:11:53;;;;;;;22.85;7.10;;;13.30;69.50;;;;;;5082466;28;20110;-79
2021/12/24 05:14:18;;;;;;;19.13;6.95;;;13.40;69.50;;;;;;5074800;28;20040;-75
2021/12/24 05:16:48;;;;;;;21.95;6.85;;;13.40;69.50;;;;;;5056789;28;20109;-74
2021/12/24 05:21:59;;;;;;;16.42;6.38;;;13.40;69.60;;;;;;5100953;28;20471;-73
2021/12/24 05:24:29;;;;;;;18.67;6.00;;;13.40;69.70;;;;;;5082486;28;20040;-69
2021/12/24 05:26:58;;;;;;;16.65;6.65;;;13.40;70.10;;;;;;5084347;28;20055;-72
2021/12/24 05:29:25;;;;;;;22.33;5.85;;;13.50;71.10;;;;;;5088075;28;20040;-73
2021/12/24 05:31:51;;;;;;;19.60;5.40;;;13.60;70.50;;;;;;5107353;28;20055;-73
2021/12/24 05:34:18;;;;;;;17.05;5.53;;;13.90;70.70;;;;;;5098543;28;20051;-71
2021/12/24 05:36:45;;;;;;;20.00;4.50;;;14.20;69.50;;;;;;5098351;28;20119;-72
2021/12/24 05:39:11;;;;;;;17.20;4.78;;;14.50;68.80;;;;;;5076025;28;20377;-74
2021/12/24 05:41:39;;;;;;;15.13;4.38;;;14.80;68.20;;;;;;5093745;28;20037;-73
2021/12/24 05:44:08;;;;;;;18.25;4.55;;;15.00;67.90;;;;;;5075776;28;20049;-72
2021/12/24 05:46:35;;;;;;;19.50;4.60;;;15.30;67.50;;;;;;5094125;28;20377;-73
2021/12/24 05:49:02;;;;;;;15.07;3.95;;;15.50;67.10;;;;;;5094492;28;20098;-73
2021/12/24 05:51:28;;;;;;;13.23;3.80;;;15.60;66.80;;;;;;5094806;28;20048;-74
2021/12/24 05:53:57;;;;;;;16.38;3.70;;;15.70;66.70;;;;;;5094811;28;20117;-73
2021/12/24 05:56:23;;;;;;;15.32;3.88;;;15.70;66.70;;;;;;5082203;28;20048;-73
2021/12/24 05:58:49;;;;;;;12.00;4.13;;;15.70;66.80;;;;;;5075322;28;20132;-73
2021/12/24 06:01:15;;;;;;;13.30;3.40;;;15.70;67.00;;;;;;5078046;28;20375;-74
2021/12/24 06:03:41;;;;;;;12.75;3.50;;;15.70;67.00;;;;;;5077763;28;20113;-72
2021/12/24 06:06:07;;;;;;;14.57;3.30;;;15.70;67.10;;;;;;5091762;28;20048;-73
2021/12/24 06:08:33;;;;;;;15.60;4.32;;;15.70;67.20;;;;;;5098211;28;20053;-72
2021/12/24 06:10:59;;;;;;;19.35;4.72;;;15.70;67.50;;;;;;5076951;28;20070;-72
2021/12/24 06:13:25;;;;;;;12.25;2.92;;;15.80;67.50;;;;;;5078627;28;20363;-72
2021/12/24 06:15:52;;;;;;;12.20;3.03;;;15.90;67.20;;;;;;5077743;28;20044;-71
2021/12/24 06:18:29;;;;;;;10.57;3.10;;;16.00;67.00;;;;;;5077864;28;20037;-72
2021/12/24 06:20:57;;;;;;;13.15;3.25;;;16.10;66.90;;;;;;5077917;28;20511;-72
2021/12/24 06:23:24;;;;;;;16.83;3.85;;;16.20;66.60;;;;;;5077765;28;20194;-72
2021/12/24 06:25:52;;;;;;;13.45;3.13;;;16.30;66.30;;;;;;5077251;28;20367;-71
2021/12/24 06:28:18;;;;;;;19.77;3.90;;;16.40;66.40;;;;;;5077380;28;20503;-72
2021/12/24 06:30:44;;;;;;;13.15;2.97;;;16.40;66.20;;;;;;5077207;28;20083;-72
2021/12/24 06:33:10;;;;;;;8.35;2.85;;;16.40;66.20;;;;;;5077829;28;20076;-72
2021/12/24 06:35:36;;;;;;;16.52;3.00;;;16.50;66.30;;;;;;5077500;28;20169;-72
2021/12/24 06:38:03;;;;;;;9.85;3.25;;;16.50;66.20;;;;;;5077527;28;20041;-72
2021/12/24 06:40:29;;;;;;;10.18;2.63;;;16.60;66.10;;;;;;5077617;28;20408;-72
2021/12/24 06:42:54;;;;;;;14.50;3.20;;;16.70;66.00;;;;;;5077600;28;20036;-72
2021/12/24 06:45:24;;;;;;;11.63;3.30;;;16.80;65.90;;;;;;5077229;28;20127;-72
2021/12/24 06:47:55;;;;;;;11.75;2.72;;;16.80;65.70;;;;;;5077238;28;20057;-74
2021/12/24 06:50:22;;;;;;;11.00;2.97;;;16.90;65.60;;;;;;5077131;28;20055;-74
2021/12/24 06:52:48;;;;;;;9.55;2.72;;;17.00;65.50;;;;;;5077211;28;20040;-73
2021/12/24 06:55:14;;;;;;;10.60;2.60;;;17.00;65.40;;;;;;5077642;28;20356;-72
2021/12/24 06:57:41;;;;;;;10.93;2.30;;;17.10;65.50;;;;;;5077707;28;20049;-73
2021/12/24 07:00:13;;;;;;;12.45;3.03;;;17.10;65.50;;;;;;5077200;28;20051;-75
2021/12/24 07:02:39;;;;;;;14.13;3.13;;;17.10;65.60;;;;;;5076957;28;20444;-75
2021/12/24 07:05:05;;;;;;;14.65;3.00;;;17.20;65.40;;;;;;5077295;28;20060;-75
2021/12/24 07:07:31;;;;;;;19.52;4.22;;;17.20;65.20;;;;;;5042627;28;20084;-76
2021/12/24 07:09:59;;;;;;;15.23;3.50;;;17.20;64.90;;;;;;5065712;28;20067;-76
2021/12/24 07:12:27;;;;;;;13.55;2.38;;;17.10;65.00;;;;;;5058893;28;20044;-73
2021/12/24 07:14:53;;;;;;;14.05;3.13;;;17.20;65.00;;;;;;5083617;28;20127;-73
2021/12/24 07:17:19;;;;;;;12.68;2.72;;;17.20;64.80;;;;;;5093884;28;20048;-73
2021/12/24 07:19:44;;;;;;;13.32;3.08;;;17.20;64.60;;;;;;5095261;28;20075;-74
2021/12/24 07:22:12;;;;;;;11.18;2.70;;;17.20;64.50;;;;;;5096815;28;20111;-76
2021/12/24 07:24:38;;;;;;;13.70;2.70;;;17.30;64.50;;;;;;5096889;28;20119;-73
2021/12/24 07:27:04;;;;;;;11.05;2.45;;;17.20;64.20;;;;;;5078726;28;20177;-74
2021/12/24 07:29:30;;;;;;;11.18;2.63;;;17.30;63.60;;;;;;5096665;28;20096;-77
2021/12/24 07:31:57;;;;;;;13.27;2.53;;;17.10;63.90;;;;;;5096976;28;20545;-75
2021/12/24 07:34:23;;;;;;;10.32;3.30;;;17.20;63.90;;;;;;5096819;28;20063;-73
2021/12/24 07:36:49;;;;;;;11.23;2.40;;;17.30;63.90;;;;;;5079068;28;20056;-74
2021/12/24 07:39:15;;;;;;;10.63;3.17;;;17.30;63.80;;;;;;5096215;28;20055;-74
2021/12/24 07:41:41;;;;;;;13.55;2.45;;;17.30;63.80;;;;;;5096376;28;20047;-73
2021/12/24 07:44:08;;;;;;;12.40;2.45;;;17.40;63.60;;;;;;5096519;28;20048;-73
2021/12/24 07:46:41;;;;;;;11.45;2.47;;;17.40;63.40;;;;;;5097021;28;20055;-73
2021/12/24 07:54:23;;;;;;;9.45;2.83;;;17.50;63.00;;;;;;5079784;28;20045;-73
2021/12/24 07:56:48;;;;;;;25.40;2.95;;;17.50;62.90;;;;;;5082900;28;20119;-74
2021/12/24 07:59:15;;;;;;;11.68;2.80;;;16.90;62.30;;;;;;5096124;28;20075;-73
2021/12/24 08:01:45;;;;;;;13.40;2.58;;;17.00;62.30;;;;;;5074639;28;20055;-73
2021/12/24 08:04:11;;;;;;;9.93;2.30;;;17.10;63.50;;;;;;5075971;28;20044;-75
2021/12/24 08:06:36;;;;;;;11.70;2.88;;;17.20;63.20;;;;;;5075780;28;20387;-73
2021/12/24 08:09:06;;;;;;;11.70;2.78;;;17.30;63.10;;;;;;5074677;28;20042;-73
2021/12/24 08:11:35;;;;;;;11.18;2.80;;;17.40;62.90;;;;;;5077049;28;20041;-72
2021/12/24 08:14:01;;;;;;;13.73;2.75;;;17.40;63.00;;;;;;5093309;28;20112;-72
2021/12/24 08:16:29;;;;;;;11.88;3.00;;;17.40;62.60;;;;;;5075601;28;20061;-72
2021/12/24 08:18:55;;;;;;;14.57;3.67;;;17.30;62.20;;;;;;5075156;28;20470;-72
2021/12/24 08:21:21;;;;;;;12.85;3.28;;;17.40;61.50;;;;;;5075386;28;20042;-73
2021/12/24 08:23:47;;;;;;;8.77;2.45;;;17.40;62.20;;;;;;5075437;28;20056;-73
2021/12/24 08:26:13;;;;;;;9.77;2.58;;;17.10;62.50;;;;;;5058367;28;20049;-75
2021/12/24 08:28:39;;;;;;;15.73;2.85;;;17.00;62.90;;;;;;5074287;28;20478;-74
2021/12/24 08:31:06;;;;;;;13.85;2.83;;;17.10;62.90;;;;;;5081556;28;20040;-73
2021/12/24 08:33:34;;;;;;;10.77;3.17;;;17.20;62.80;;;;;;5095468;28;20058;-72
2021/12/24 08:36:02;;;;;;;9.77;2.63;;;17.40;62.80;;;;;;5095944;28;20039;-73
2021/12/24 08:38:27;;;;;;;11.13;2.35;;;17.40;62.80;;;;;;5095746;28;20048;-72
2021/12/24 08:40:53;;;;;;;20.00;3.40;;;17.50;62.70;;;;;;5095466;28;20497;-72
2021/12/24 08:43:19;;;;;;;12.27;3.45;;;17.50;63.00;;;;;;5095415;28;20044;-74
2021/12/24 08:45:44;;;;;;;14.55;3.70;;;17.60;62.80;;;;;;5095023;28;20044;-75
2021/12/24 08:48:10;;;;;;;14.88;3.67;;;17.60;62.90;;;;;;5095425;28;20044;-74
2021/12/24 08:50:37;;;;;;;15.88;3.85;;;17.70;62.60;;;;;;5083473;28;20426;-72
2021/12/24 08:53:04;;;;;;;12.18;3.78;;;17.80;62.40;;;;;;5075045;28;20056;-72
2021/12/24 08:55:29;;;;;;;15.50;3.42;;;17.50;62.30;;;;;;5057678;28;20455;-73
2021/12/24 08:57:55;;;;;;;11.20;3.78;;;17.60;62.20;;;;;;5075139;28;20055;-72
2021/12/24 09:00:23;;;;;;;13.55;3.85;;;17.60;61.80;;;;;;5085750;28;20087;-72
2021/12/24 09:02:49;;;;;;;11.32;3.75;;;17.60;61.90;;;;;;5087486;28;20056;-71
2021/12/24 09:05:15;;;;;;;9.00;2.30;;;17.70;62.10;;;;;;5084925;28;20508;-73
2021/12/24 09:07:42;;;;;;;9.75;2.35;;;17.60;61.20;;;;;;5081326;28;20041;-72
2021/12/24 09:10:09;;;;;;;6.72;2.05;;;17.70;60.90;;;;;;5073508;28;20058;-73
2021/12/24 09:12:35;;;;;;;10.00;2.17;;;17.60;60.80;;;;;;5074438;28;20041;-72
2021/12/24 09:15:03;;;;;;;7.00;2.50;;;17.60;60.60;;;;;;5073990;28;20067;-73
2021/12/24 09:17:30;;;;;;;9.18;1.90;;;17.50;61.10;;;;;;5074525;28;20511;-71
2021/12/24 09:19:56;;;;;;;7.05;1.85;;;17.20;61.90;;;;;;5074690;28;20098;-72
2021/12/24 09:22:29;;;;;;;9.80;2.08;;;17.20;62.30;;;;;;5083255;28;20114;-72
2021/12/24 09:24:56;;;;;;;7.15;2.10;;;17.20;62.20;;;;;;5094644;28;20112;-72
2021/12/24 09:27:22;;;;;;;10.43;1.90;;;17.20;62.20;;;;;;5077707;28;20364;-71
2021/12/24 09:29:48;;;;;;;9.85;1.80;;;17.20;62.20;;;;;;5094440;28;20063;-73
2021/12/24 09:32:14;;;;;;;12.70;1.88;;;17.20;62.20;;;;;;5091505;28;20040;-71
2021/12/24 09:34:40;;;;;;;5.10;1.77;;;17.20;62.40;;;;;;5067995;28;20044;-72
2021/12/24 09:37:06;;;;;;;4.30;1.35;;;17.10;62.60;;;;;;5095121;28;20071;-71
2021/12/24 09:39:32;;;;;;;4.63;1.50;;;17.10;62.80;;;;;;5077426;28;20120;-73
2021/12/24 09:41:59;;;;;;;4.68;1.30;;;17.10;63.60;;;;;;5077964;28;20044;-72
2021/12/24 09:44:25;;;;;;;4.40;1.15;;;17.00;62.90;;;;;;5097113;28;20113;-71
2021/12/24 09:46:51;;;;;;;3.22;0.95;;;16.90;62.80;;;;;;5096664;28;20056;-72
2021/12/24 09:49:17;;;;;;;3.90;0.77;;;16.80;62.90;;;;;;5078930;28;20063;-71
2021/12/24 09:51:51;;;;;;;2.70;0.60;;;16.80;63.60;;;;;;5078519;28;20048;-72
2021/12/24 09:54:22;;;;;;;5.30;0.93;;;16.70;63.30;;;;;;5094670;28;20059;-71
2021/12/24 09:56:49;;;;;;;3.78;1.08;;;16.70;63.40;;;;;;5098969;28;20040;-71
2021/12/24 09:59:15;;;;;;;1.92;0.50;;;16.60;63.40;;;;;;5098919;28;20048;-72
2021/12/24 10:01:43;;;;;;;2.55;0.70;;;16.60;63.70;;;;;;5095053;28;20064;-72
2021/12/24 10:04:15;;;;;;;5.20;0.60;;;16.50;63.80;;;;;;5078028;28;20074;-77
2021/12/24 10:07:03;;;;;;;5.25;0.50;;;16.50;64.00;;;;;;5078156;28;20116;-73
2021/12/24 10:09:31;;;;;;;4.47;0.77;;;16.50;64.00;;;;;;5079771;28;20052;-72
2021/12/24 10:12:00;;;;;;;7.95;0.93;;;16.40;64.40;;;;;;5093375;28;20473;-72
2021/12/24 10:14:41;;;;;;;2.35;0.80;;;16.50;64.70;;;;;;5061281;28;20064;-72
2021/12/24 10:17:19;;;;;;;2.53;0.55;;;16.40;64.70;;;;;;5077916;28;20052;-72
2021/12/24 10:19:54;;;;;;;2.03;0.63;;;16.40;64.70;;;;;;5079323;28;20116;-74
2021/12/24 10:22:21;;;;;;;6.32;1.10;;;16.30;64.90;;;;;;5087640;28;20040;-72
2021/12/24 10:25:09;;;;;;;3.60;0.63;;;16.30;65.20;;;;;;5098133;28;20122;-71
2021/12/24 10:27:35;;;;;;;10.10;1.33;;;16.30;65.50;;;;;;5098131;28;20044;-72
2021/12/24 10:30:21;;;;;;;8.32;1.77;;;16.30;65.70;;;;;;5098595;28;20101;-71
2021/12/24 10:32:48;;;;;;;6.00;1.17;;;16.30;66.90;;;;;;5087560;28;20059;-72
2021/12/24 10:35:26;;;;;;;7.03;1.20;;;16.30;67.00;;;;;;5096333;28;20054;-71
2021/12/24 10:38:14;;;;;;;11.40;1.10;;;16.30;67.10;;;;;;5074099;28;20063;-72
2021/12/24 10:41:05;;;;;;;3.00;1.05;;;16.30;67.10;;;;;;5083035;28;20423;-72
2021/12/24 10:43:36;;;;;;;3.00;0.80;;;16.30;67.10;;;;;;5076778;28;20040;-71
2021/12/24 10:46:14;;;;;;;6.03;1.10;;;16.30;66.90;;;;;;5077259;28;20447;-73
2021/12/24 10:48:48;;;;;;;8.10;0.90;;;16.20;66.50;;;;;;5077375;28;20454;-72
2021/12/24 10:51:41;;;;;;;8.98;0.88;;;16.20;67.00;;;;;;5077424;28;20048;-71
2021/12/24 10:54:07;;;;;;;4.30;0.90;;;16.20;66.50;;;;;;5076905;28;20052;-71
2021/12/24 10:56:33;;;;;;;4.60;0.77;;;16.20;66.30;;;;;;5077173;28;20052;-71
2021/12/24 10:58:58;;;;;;;5.28;0.93;;;16.20;66.40;;;;;;5081008;28;20039;-71
2021/12/24 11:01:24;;;;;;;5.18;1.17;;;16.20;66.40;;;;;;5097284;28;20426;-71
2021/12/24 11:03:50;;;;;;;4.03;0.73;;;16.20;66.30;;;;;;5097078;28;20044;-71
2021/12/24 11:06:16;;;;;;;3.75;0.80;;;16.10;66.10;;;;;;5097161;28;20075;-71
2021/12/24 11:08:43;;;;;;;6.28;0.80;;;16.10;66.10;;;;;;5096224;28;20410;-70
2021/12/24 11:11:15;;;;;;;2.75;0.50;;;16.10;66.00;;;;;;5096650;28;20443;-71
2021/12/24 11:13:43;;;;;;;2.63;1.00;;;16.00;65.90;;;;;;5097315;28;20048;-71
2021/12/24 11:16:11;;;;;;;1.67;0.50;;;16.00;65.90;;;;;;5097771;28;20110;-71
2021/12/24 11:18:40;;;;;;;1.35;0.30;;;16.00;65.90;;;;;;5096898;28;20064;-71
2021/12/24 11:21:32;;;;;;;2.88;0.80;;;16.00;65.80;;;;;;5078638;28;20359;-71
2021/12/24 11:23:58;;;;;;;3.00;0.60;;;16.00;65.70;;;;;;5092606;28;20492;-70
2021/12/24 11:26:27;;;;;;;2.88;0.65;;;16.00;65.70;;;;;;5097551;28;20122;-72
2021/12/24 11:28:54;;;;;;;3.83;0.90;;;16.00;65.60;;;;;;5077966;28;20062;-71
2021/12/24 11:31:23;;;;;;;2.65;0.52;;;16.00;65.60;;;;;;5076611;28;20088;-71
2021/12/24 11:33:51;;;;;;;2.55;0.90;;;15.90;65.50;;;;;;5076598;28;20375;-71
2021/12/24 11:36:21;;;;;;;4.45;0.93;;;16.00;62.60;;;;;;5076839;28;20048;-71
2021/12/24 11:38:50;;;;;;;1.80;0.60;;;15.80;61.80;;;;;;5076609;28;20136;-71
2021/12/24 11:41:19;;;;;;;8.80;1.63;;;15.60;63.20;;;;;;5095149;28;20047;-73
2021/12/24 11:43:49;;;;;;;3.45;0.80;;;15.60;64.80;;;;;;5064013;28;20101;-72
2021/12/24 11:46:17;;;;;;;4.47;1.05;;;15.70;64.20;;;;;;5076156;28;20459;-72
2021/12/24 11:48:48;;;;;;;9.32;1.65;;;15.80;64.10;;;;;;5076255;28;20509;-72
2021/12/24 11:51:15;;;;;;;9.32;1.48;;;16.00;64.10;;;;;;5076378;28;20070;-74
2021/12/24 11:53:41;;;;;;;5.45;0.80;;;16.20;64.20;;;;;;5076224;28;20132;-72
2021/12/24 11:56:10;;;;;;;7.43;0.85;;;16.30;63.80;;;;;;5076054;28;20048;-73
2021/12/24 11:58:49;;;;;;;5.43;0.80;;;16.50;63.90;;;;;;5059854;28;20058;-72
2021/12/24 12:01:18;;;;;;;7.30;1.00;;;16.50;64.00;;;;;;5073285;28;20119;-72
2021/12/24 12:03:49;;;;;;;7.28;1.52;;;16.60;64.10;;;;;;5095114;28;20431;-72
2021/12/24 12:06:20;;;;;;;7.03;0.93;;;16.60;64.30;;;;;;5095803;28;20544;-74
2021/12/24 12:08:48;;;;;;;2.78;0.93;;;16.60;64.50;;;;;;5095893;28;20044;-73
2021/12/24 12:11:14;;;;;;;4.15;0.77;;;16.60;64.70;;;;;;5096044;28;20044;-73
2021/12/24 12:13:44;;;;;;;6.53;1.02;;;16.60;64.80;;;;;;5095881;28;20188;-72
2021/12/24 12:16:20;;;;;;;5.35;0.77;;;16.60;65.00;;;;;;5095438;28;20051;-73
2021/12/24 12:19:03;;;;;;;5.00;1.40;;;16.60;65.10;;;;;;5095142;28;20047;-73
2021/12/24 12:21:39;;;;;;;5.38;1.00;;;16.60;65.30;;;;;;5095673;28;20090;-72
2021/12/24 12:26:51;;;;;;;4.70;0.80;;;16.20;66.70;;;;;;5090559;28;20110;-73
2021/12/24 12:29:26;;;;;;;5.22;0.90;;;16.30;66.10;;;;;;5074823;28;20063;-74
2021/12/24 12:32:10;;;;;;;5.00;1.27;;;16.30;66.10;;;;;;5075386;28;20378;-74
2021/12/24 12:34:38;;;;;;;6.90;0.77;;;16.30;66.30;;;;;;5075296;28;20044;-73
2021/12/24 12:37:26;;;;;;;4.60;0.68;;;16.10;67.10;;;;;;5074665;28;20048;-73
2021/12/24 12:40:22;;;;;;;6.70;0.75;;;16.20;66.60;;;;;;5058421;28;20044;-72
2021/12/24 12:42:57;;;;;;;7.93;1.02;;;16.30;66.50;;;;;;5074255;28;20094;-72
2021/12/24 12:45:32;;;;;;;4.40;0.80;;;16.30;66.30;;;;;;5075099;28;20360;-72
2021/12/24 12:48:01;;;;;;;7.72;1.23;;;16.40;66.40;;;;;;5075142;28;20060;-72
2021/12/24 12:50:28;;;;;;;8.57;0.60;;;16.40;66.30;;;;;;5080301;28;20367;-72
2021/12/24 12:53:27;;;;;;;5.50;0.80;;;16.40;66.30;;;;;;5095117;28;20043;-72
2021/12/24 12:56:14;;;;;;;4.55;1.23;;;16.40;66.40;;;;;;5086739;28;20423;-72
2021/12/24 12:58:41;;;;;;;3.42;0.50;;;16.50;66.20;;;;;;5077045;28;20460;-72
2021/12/24 13:01:21;;;;;;;3.85;0.65;;;16.60;66.00;;;;;;5076510;28;20044;-71
2021/12/24 13:03:56;;;;;;;4.93;0.80;;;16.60;66.00;;;;;;5091956;28;20051;-71
2021/12/24 13:06:34;;;;;;;4.82;0.77;;;16.70;65.90;;;;;;5095180;28;20104;-71
2021/12/24 13:09:03;;;;;;;7.53;0.68;;;16.80;65.70;;;;;;5095572;28;20055;-72
2021/12/24 13:11:35;;;;;;;6.28;0.88;;;16.90;65.60;;;;;;5095734;28;20055;-71
2021/12/24 13:14:02;;;;;;;4.25;0.93;;;16.90;65.50;;;;;;5093603;28;20059;-71
2021/12/24 13:16:45;;;;;;;5.75;0.68;;;17.00;65.40;;;;;;5098682;28;20462;-71
2021/12/24 13:24:17;;;;;;;7.13;0.63;;;17.10;65.10;;;;;;5097092;28;20083;-71
2021/12/24 13:26:45;;;;;;;6.28;0.73;;;17.10;65.00;;;;;;5099901;28;20044;-71
2021/12/24 13:29:13;;;;;;;8.13;1.00;;;17.10;65.10;;;;;;5099806;28;20044;-72
2021/12/24 13:31:41;;;;;;;5.45;1.23;;;17.10;65.20;;;;;;5081570;28;20124;-71
2021/12/24 13:34:12;;;;;;;13.52;0.90;;;17.10;65.30;;;;;;5080005;28;20048;-71
2021/12/24 13:36:38;;;;;;;10.27;1.73;;;17.10;65.50;;;;;;5078737;28;20037;-71
2021/12/24 13:39:13;;;;;;;7.45;0.90;;;17.00;65.60;;;;;;5078817;28;20128;-71
2021/12/24 13:41:40;;;;;;;4.60;0.77;;;17.00;65.40;;;;;;5079413;28;20044;-71
2021/12/24 13:44:06;;;;;;;8.93;1.20;;;16.90;65.20;;;;;;5085442;28;20082;-71
2021/12/24 13:46:36;;;;;;;5.22;0.57;;;16.90;65.00;;;;;;5078062;28;20083;-72
2021/12/24 13:49:33;;;;;;;6.22;0.40;;;16.80;64.30;;;;;;5078267;28;20045;-71
2021/12/24 13:54:42;;;;;;;12.45;1.27;;;16.60;63.90;;;;;;5099124;28;20087;-72
2021/12/24 13:57:07;;;;;;;2.40;0.40;;;16.60;63.90;;;;;;5099185;28;20083;-72
2021/12/24 13:59:34;;;;;;;4.28;0.50;;;16.50;63.90;;;;;;5098849;28;20122;-71
2021/12/24 14:02:01;;;;;;;3.67;0.38;;;16.50;63.90;;;;;;5092165;28;20036;-71
2021/12/24 14:04:27;;;;;;;4.43;0.45;;;16.50;64.00;;;;;;5078331;28;20048;-71
2021/12/24 14:06:57;;;;;;;2.40;0.38;;;16.40;64.00;;;;;;5078656;28;20089;-71
2021/12/24 14:09:32;;;;;;;4.25;0.50;;;16.40;64.00;;;;;;5078064;28;20044;-71
2021/12/24 14:12:00;;;;;;;5.00;0.40;;;16.40;64.00;;;;;;5078259;28;20047;-71
2021/12/24 14:15:09;;;;;;;3.70;0.45;;;16.30;64.10;;;;;;5060504;28;20052;-71
2021/12/24 14:22:19;;;;;;;2.03;0.50;;;16.20;64.30;;;;;;5084211;28;20051;-71
2021/12/24 14:25:10;;;;;;;4.40;0.70;;;16.20;64.30;;;;;;5097417;28;20067;-72
2021/12/24 14:27:39;;;;;;;1.42;0.30;;;16.20;64.30;;;;;;5097023;28;20044;-71
2021/12/24 14:30:07;;;;;;;2.60;0.30;;;16.10;64.40;;;;;;5098592;28;20050;-71
2021/12/24 14:32:38;;;;;;;1.83;0.30;;;16.10;64.40;;;;;;5089056;28;20117;-71
2021/12/24 14:35:19;;;;;;;1.08;0.20;;;16.10;64.40;;;;;;5077764;28;20044;-71
2021/12/24 14:37:56;;;;;;;2.22;0.28;;;16.10;64.40;;;;;;5077531;28;20045;-72
2021/12/24 14:40:23;;;;;;;1.85;0.32;;;16.00;64.30;;;;;;5077799;28;20033;-71
2021/12/24 14:42:51;;;;;;;1.52;0.10;;;16.00;64.50;;;;;;5087711;28;20044;-71
2021/12/24 14:45:25;;;;;;;12.20;1.00;;;16.00;64.60;;;;;;5080506;28;20397;-72
2021/12/24 14:48:09;;;;;;;3.40;0.40;;;16.00;64.80;;;;;;5088614;28;20486;-72
2021/12/24 14:50:56;;;;;;;4.07;0.50;;;16.00;64.90;;;;;;5096119;28;20478;-72
2021/12/24 14:53:45;;;;;;;5.63;1.00;;;15.90;65.20;;;;;;5097439;28;20127;-72